createdAt,value
2023-03-06T00:00:26.172Z,2.17
2023-03-06T00:02:53.248Z,2.22
2023-03-06T00:05:20.303Z,2.25
2023-03-06T00:07:47.110Z,2.53
2023-03-06T00:10:20.614Z,2.22
2023-03-06T00:12:47.681Z,2.22
2023-03-06T00:15:14.554Z,2.58
2023-03-06T00:17:41.409Z,2.00
2023-03-06T00:20:10.394Z,3.05
2023-03-06T00:22:37.609Z,2.10
2023-03-06T00:25:05.358Z,2.42
2023-03-06T00:27:33.147Z,2.90
2023-03-06T00:30:00.888Z,3.63
2023-03-06T00:32:28.666Z,2.55
2023-03-06T00:34:56.502Z,3.15
2023-03-06T00:37:24.748Z,3.05
2023-03-06T00:39:52.190Z,2.78
2023-03-06T00:42:19.585Z,3.08
2023-03-06T00:44:46.528Z,3.00
2023-03-06T00:47:13.864Z,3.20
2023-03-06T00:49:40.586Z,3.35
2023-03-06T00:52:07.420Z,2.97
2023-03-06T00:54:34.336Z,3.22
2023-03-06T00:57:01.141Z,3.80
2023-03-06T00:59:28.144Z,3.83
2023-03-06T01:01:55.483Z,3.20
2023-03-06T01:04:22.339Z,3.67
2023-03-06T01:06:49.278Z,3.47
2023-03-06T01:09:16.129Z,3.47
2023-03-06T01:11:43.024Z,3.20
2023-03-06T01:14:09.903Z,3.28
2023-03-06T01:16:39.524Z,2.80
2023-03-06T01:19:06.318Z,2.67
2023-03-06T01:21:33.130Z,3.42
2023-03-06T01:23:59.852Z,3.03
2023-03-06T01:26:26.627Z,3.28
2023-03-06T01:28:53.426Z,3.15
2023-03-06T01:31:20.290Z,3.70
2023-03-06T01:33:47.063Z,3.15
2023-03-06T01:36:13.865Z,3.50
2023-03-06T01:38:40.632Z,2.67
2023-03-06T01:41:08.122Z,3.08
2023-03-06T01:43:37.306Z,2.97
2023-03-06T01:46:26.016Z,2.60
2023-03-06T01:49:09.633Z,2.42
2023-03-06T01:51:40.882Z,2.30
2023-03-06T01:54:16.409Z,2.42
2023-03-06T01:57:41.331Z,2.30
2023-03-06T02:00:15.980Z,2.45
2023-03-06T02:02:45.383Z,1.77
2023-03-06T02:05:12.636Z,2.33
2023-03-06T02:07:40.550Z,2.35
2023-03-06T02:10:09.074Z,2.40
2023-03-06T02:12:37.509Z,2.10
2023-03-06T02:15:04.720Z,1.95
2023-03-06T02:17:34.099Z,2.13
2023-03-06T02:20:21.081Z,2.50
2023-03-06T02:23:09.643Z,2.28
2023-03-06T02:25:43.573Z,2.08
2023-03-06T02:28:13.838Z,2.42
2023-03-06T02:30:41.740Z,2.00
2023-03-06T02:33:11.861Z,3.03
2023-03-06T02:35:40.000Z,2.53
2023-03-06T02:38:11.423Z,2.03
2023-03-06T02:40:38.676Z,2.05
2023-03-06T02:43:05.640Z,2.17
2023-03-06T02:45:44.418Z,2.10
2023-03-06T02:48:15.728Z,1.63
2023-03-06T02:50:43.853Z,2.15
2023-03-06T02:53:13.538Z,2.22
2023-03-06T02:55:40.847Z,1.90
2023-03-06T02:58:08.181Z,2.15
2023-03-06T03:00:35.383Z,2.28
2023-03-06T03:03:02.396Z,1.88
2023-03-06T03:05:29.258Z,2.25
2023-03-06T03:07:56.015Z,2.08
2023-03-06T03:11:03.353Z,2.08
2023-03-06T03:13:30.424Z,2.10
2023-03-06T03:16:02.409Z,2.22
2023-03-06T03:18:29.475Z,1.63
2023-03-06T03:20:56.262Z,2.08
2023-03-06T03:23:23.603Z,2.00
2023-03-06T03:25:50.815Z,1.98
2023-03-06T03:28:18.334Z,1.77
2023-03-06T03:30:45.604Z,1.48
2023-03-06T03:33:12.914Z,1.70
2023-03-06T03:35:39.784Z,1.50
2023-03-06T03:38:06.607Z,0.93
2023-03-06T03:40:33.615Z,1.58
2023-03-06T03:43:00.396Z,1.17
2023-03-06T03:45:27.178Z,1.45
2023-03-06T03:47:53.912Z,1.38
2023-03-06T03:50:20.823Z,1.85
2023-03-06T03:52:47.566Z,1.48
2023-03-06T03:55:15.047Z,1.65
2023-03-06T03:57:43.086Z,1.63
2023-03-06T04:00:14.807Z,1.73
2023-03-06T04:02:42.392Z,1.50
2023-03-06T04:05:10.261Z,1.60
2023-03-06T04:07:37.577Z,1.27
2023-03-06T04:11:04.379Z,1.75
2023-03-06T04:15:59.594Z,1.30
2023-03-06T04:18:26.910Z,1.13
2023-03-06T04:20:54.036Z,1.30
2023-03-06T04:23:22.837Z,1.52
2023-03-06T04:25:50.005Z,1.48
2023-03-06T04:28:17.165Z,1.10
2023-03-06T04:30:43.915Z,1.42
2023-03-06T04:33:10.806Z,1.42
2023-03-06T04:35:37.694Z,1.10
2023-03-06T04:38:05.495Z,1.27
2023-03-06T04:40:34.781Z,1.63
2023-03-06T04:43:02.899Z,1.50
2023-03-06T04:45:31.142Z,1.50
2023-03-06T04:47:58.591Z,1.10
2023-03-06T04:50:28.015Z,1.13
2023-03-06T04:52:54.770Z,1.35
2023-03-06T04:55:21.548Z,1.35
2023-03-06T04:57:48.622Z,1.77
2023-03-06T05:00:19.649Z,1.83
2023-03-06T05:02:47.452Z,1.45
2023-03-06T05:05:15.262Z,1.27
2023-03-06T05:07:42.196Z,1.40
2023-03-06T05:10:13.992Z,1.30
2023-03-06T05:12:40.818Z,1.42
2023-03-06T05:15:08.977Z,1.10
2023-03-06T05:20:30.655Z,1.90
2023-03-06T05:22:57.377Z,2.10
2023-03-06T05:25:24.120Z,1.38
2023-03-06T05:27:51.137Z,2.03
2023-03-06T05:30:18.675Z,2.00
2023-03-06T05:32:45.504Z,1.55
2023-03-06T05:35:17.996Z,1.60
2023-03-06T05:37:44.801Z,2.55
2023-03-06T05:40:12.488Z,2.03
2023-03-06T05:42:39.285Z,2.42
2023-03-06T05:45:06.616Z,2.08
2023-03-06T05:47:33.668Z,2.08
2023-03-06T05:50:00.525Z,2.15
2023-03-06T05:52:27.310Z,3.00
2023-03-06T05:54:55.029Z,3.35
2023-03-06T05:57:23.362Z,2.30
2023-03-06T05:59:50.670Z,1.83
2023-03-06T06:05:32.385Z,2.10
2023-03-06T06:07:59.216Z,2.08
2023-03-06T06:10:25.981Z,2.60
2023-03-06T06:12:52.736Z,1.92
2023-03-06T06:15:19.565Z,1.77
2023-03-06T06:17:46.292Z,1.75
2023-03-06T06:20:14.279Z,1.70
2023-03-06T06:22:41.201Z,2.58
2023-03-06T06:28:00.548Z,2.25
2023-03-06T06:30:27.341Z,2.28
2023-03-06T06:32:54.152Z,2.53
2023-03-06T06:35:21.077Z,2.72
2023-03-06T06:37:48.616Z,2.60
2023-03-06T06:40:15.880Z,2.30
2023-03-06T06:43:06.449Z,2.67
2023-03-06T06:45:33.254Z,2.13
2023-03-06T06:48:00.082Z,3.30
2023-03-06T06:50:27.068Z,2.95
2023-03-06T06:52:53.870Z,2.38
2023-03-06T06:55:20.763Z,2.35
2023-03-06T06:57:47.578Z,2.45
2023-03-06T07:00:14.858Z,2.10
2023-03-06T07:02:41.853Z,2.25
2023-03-06T07:05:09.138Z,2.67
2023-03-06T07:07:38.113Z,2.55
2023-03-06T07:10:08.301Z,2.88
2023-03-06T07:12:35.338Z,2.13
2023-03-06T07:15:02.644Z,2.38
2023-03-06T07:17:29.638Z,2.88
2023-03-06T07:19:56.598Z,2.50
2023-03-06T07:22:23.999Z,2.75
2023-03-06T07:24:57.081Z,2.55
2023-03-06T07:27:26.034Z,2.20
2023-03-06T07:29:52.843Z,2.20
2023-03-06T07:32:20.708Z,2.33
2023-03-06T07:34:47.885Z,2.85
2023-03-06T07:37:14.655Z,3.13
2023-03-06T07:39:41.390Z,3.33
2023-03-06T07:42:08.256Z,2.63
2023-03-06T07:44:38.640Z,3.13
2023-03-06T07:47:06.710Z,2.70
2023-03-06T07:49:34.607Z,2.38
2023-03-06T07:52:01.991Z,3.05
2023-03-06T07:54:30.671Z,3.05
2023-03-06T07:57:47.422Z,2.90
2023-03-06T08:00:15.937Z,3.25
2023-03-06T08:02:43.315Z,3.95
2023-03-06T08:05:13.735Z,3.80
2023-03-06T08:07:45.037Z,3.75
2023-03-06T08:13:33.909Z,3.72
2023-03-06T08:16:00.844Z,4.00
2023-03-06T08:18:28.565Z,3.70
2023-03-06T08:21:14.238Z,3.45
2023-03-06T08:23:41.323Z,3.33
2023-03-06T08:26:14.110Z,2.95
2023-03-06T08:28:41.812Z,3.28
2023-03-06T08:31:12.838Z,3.47
2023-03-06T08:33:40.521Z,3.47
2023-03-06T08:36:07.618Z,3.90
2023-03-06T08:38:34.437Z,4.22
2023-03-06T08:41:01.412Z,3.67
2023-03-06T08:43:28.387Z,4.30
2023-03-06T08:45:57.027Z,4.38
2023-03-06T08:51:05.390Z,4.20
2023-03-06T08:53:42.670Z,4.28
2023-03-06T08:56:36.585Z,4.07
2023-03-06T08:59:04.456Z,3.90
2023-03-06T09:01:36.666Z,4.38
2023-03-06T09:04:11.812Z,4.35
2023-03-06T09:06:41.429Z,4.60
2023-03-06T09:11:42.561Z,4.20
2023-03-06T09:14:09.528Z,4.95
2023-03-06T09:16:36.367Z,4.80
2023-03-06T09:19:03.310Z,4.40
2023-03-06T09:21:30.127Z,5.45
2023-03-06T09:23:57.141Z,4.93
2023-03-06T09:26:32.837Z,5.65
2023-03-06T09:29:06.863Z,5.00
2023-03-06T09:31:33.693Z,4.95
2023-03-06T09:34:00.416Z,5.22
2023-03-06T09:39:01.506Z,4.88
2023-03-06T09:44:53.532Z,5.20
2023-03-06T09:48:04.016Z,4.88
2023-03-06T09:50:35.709Z,5.88
2023-03-06T09:59:47.580Z,5.25
2023-03-06T10:02:46.089Z,5.43
2023-03-06T10:05:21.500Z,6.18
2023-03-06T10:10:28.696Z,4.65
2023-03-06T10:13:25.153Z,4.82
2023-03-06T10:16:07.273Z,4.78
2023-03-06T10:18:38.360Z,5.05
2023-03-06T10:21:32.878Z,5.22
2023-03-06T10:24:35.493Z,4.20
2023-03-06T10:30:02.184Z,5.13
2023-03-06T10:32:55.268Z,4.28
2023-03-06T10:35:42.397Z,4.18
2023-03-06T10:38:25.529Z,3.80
2023-03-06T10:41:07.617Z,4.45
2023-03-06T10:43:45.263Z,3.85
2023-03-06T10:46:26.506Z,2.80
2023-03-06T10:49:06.073Z,2.67
2023-03-06T10:51:34.202Z,3.22
2023-03-06T10:54:18.087Z,2.63
2023-03-06T10:56:47.131Z,2.53
2023-03-06T10:59:25.614Z,2.00
2023-03-06T11:06:07.450Z,2.45
2023-03-06T11:08:35.465Z,2.10
2023-03-06T11:11:08.764Z,2.08
2023-03-06T11:16:34.522Z,2.08
2023-03-06T11:19:06.867Z,1.67
2023-03-06T11:21:37.456Z,2.42
2023-03-06T11:24:19.988Z,1.65
2023-03-06T11:26:54.288Z,1.52
2023-03-06T11:32:53.876Z,1.83
2023-03-06T11:35:24.610Z,1.63
2023-03-06T11:38:04.232Z,1.52
2023-03-06T11:40:43.314Z,1.45
2023-03-06T11:43:29.840Z,1.30
2023-03-06T11:46:07.769Z,1.67
2023-03-06T11:48:46.266Z,1.60
2023-03-06T11:51:21.305Z,1.95
2023-03-06T11:53:48.752Z,1.30
2023-03-06T11:56:34.434Z,1.55
2023-03-06T11:59:07.788Z,1.35
2023-03-06T12:01:49.553Z,2.28
2023-03-06T12:04:47.288Z,1.52
2023-03-06T12:07:25.987Z,1.58
2023-03-06T12:09:56.121Z,1.95
2023-03-06T12:13:07.682Z,1.30
2023-03-06T12:16:03.833Z,1.38
2023-03-06T12:21:40.824Z,1.20
2023-03-06T12:24:16.489Z,0.90
2023-03-06T12:27:01.436Z,1.27
2023-03-06T12:29:58.885Z,0.93
2023-03-06T12:32:49.307Z,1.00
2023-03-06T12:35:32.380Z,0.80
2023-03-06T12:38:08.059Z,0.88
2023-03-06T12:40:44.202Z,1.20
2023-03-06T12:43:41.807Z,1.02
2023-03-06T12:52:31.344Z,1.50
2023-03-06T12:55:05.888Z,1.27
2023-03-06T12:57:32.703Z,1.07
2023-03-06T12:59:59.502Z,1.13
2023-03-06T13:02:45.112Z,0.98
2023-03-06T13:05:30.088Z,1.25
2023-03-06T13:08:38.854Z,0.73
2023-03-06T13:11:24.187Z,0.90
2023-03-06T13:13:51.178Z,1.25
2023-03-06T13:16:34.631Z,0.73
2023-03-06T13:19:10.940Z,0.90
2023-03-06T13:22:00.635Z,0.80
2023-03-06T13:24:30.058Z,1.02
2023-03-06T13:27:01.525Z,0.63
2023-03-06T13:29:37.403Z,1.15
2023-03-06T13:32:49.425Z,1.33
2023-03-06T13:35:34.190Z,0.90
2023-03-06T13:38:01.097Z,0.98
2023-03-06T13:40:34.132Z,1.42
2023-03-06T13:43:00.805Z,1.20
2023-03-06T13:45:37.596Z,1.10
2023-03-06T13:50:53.521Z,2.92
2023-03-06T13:53:49.217Z,2.20
2023-03-06T13:56:18.827Z,0.90
2023-03-06T13:59:14.306Z,1.30
2023-03-06T14:01:53.370Z,1.00
2023-03-06T14:04:30.700Z,0.80
2023-03-06T14:10:06.416Z,0.90
2023-03-06T14:12:35.993Z,1.15
2023-03-06T14:15:24.490Z,0.90
2023-03-06T14:18:00.404Z,0.88
2023-03-06T14:21:00.977Z,0.60
2023-03-06T14:23:29.274Z,0.85
2023-03-06T14:26:07.611Z,1.15
2023-03-06T14:28:35.811Z,1.13
2023-03-06T14:31:05.986Z,0.85
2023-03-06T14:33:42.053Z,0.95
2023-03-06T14:36:17.761Z,0.90
2023-03-06T14:38:57.160Z,0.85
2023-03-06T14:41:29.647Z,1.02
2023-03-06T14:44:18.127Z,1.25
2023-03-06T14:46:56.797Z,0.95
2023-03-06T14:49:26.142Z,1.48
2023-03-06T14:52:19.199Z,1.90
2023-03-06T14:54:46.591Z,1.90
2023-03-06T14:57:17.692Z,1.05
2023-03-06T14:59:51.711Z,1.10
2023-03-06T15:02:22.570Z,1.45
2023-03-06T15:05:04.094Z,1.45
2023-03-06T15:07:33.173Z,0.88
2023-03-06T15:10:00.557Z,1.10
2023-03-06T15:12:27.340Z,1.20
2023-03-06T15:15:10.404Z,1.52
2023-03-06T15:17:42.908Z,1.08
2023-03-06T15:20:43.937Z,1.70
2023-03-06T15:23:35.851Z,1.23
2023-03-06T15:26:25.028Z,1.13
2023-03-06T15:32:27.473Z,1.45
2023-03-06T15:35:25.553Z,1.23
2023-03-06T15:37:52.532Z,1.20
2023-03-06T15:40:21.426Z,1.52
2023-03-06T15:45:19.632Z,1.15
2023-03-06T15:47:48.675Z,1.33
2023-03-06T15:50:21.702Z,2.05
2023-03-06T15:52:49.104Z,1.17
2023-03-06T15:55:18.638Z,2.33
2023-03-06T15:57:55.453Z,1.70
2023-03-06T16:00:28.674Z,1.27
2023-03-06T16:06:35.486Z,1.48
2023-03-06T16:09:02.247Z,1.65
2023-03-06T16:11:43.241Z,1.35
2023-03-06T16:14:23.771Z,1.50
2023-03-06T16:16:54.510Z,1.48
2023-03-06T16:20:24.414Z,1.55
2023-03-06T16:22:53.638Z,1.33
2023-03-06T16:25:23.971Z,2.53
2023-03-06T16:27:58.732Z,1.90
2023-03-06T16:30:28.971Z,2.15
2023-03-06T16:32:57.533Z,1.40
2023-03-06T16:35:28.761Z,1.60
2023-03-06T16:37:55.818Z,2.00
2023-03-06T16:40:30.829Z,2.67
2023-03-06T16:45:25.030Z,2.30
2023-03-06T16:47:52.206Z,2.33
2023-03-06T16:50:29.388Z,3.22
2023-03-06T16:52:57.416Z,3.05
2023-03-06T16:55:26.236Z,2.60
2023-03-06T16:57:53.930Z,2.55
2023-03-06T17:00:22.059Z,3.72
2023-03-06T17:02:49.764Z,2.90
2023-03-06T17:05:17.316Z,3.58
2023-03-06T17:07:44.549Z,3.05
2023-03-06T17:10:14.917Z,2.42
2023-03-06T17:12:42.356Z,2.70
2023-03-06T17:15:10.071Z,2.90
2023-03-06T17:17:37.607Z,3.17
2023-03-06T17:20:06.985Z,2.05
2023-03-06T17:25:06.906Z,2.38
2023-03-06T17:27:35.090Z,1.95
2023-03-06T17:30:02.436Z,2.75
2023-03-06T17:32:29.279Z,2.30
2023-03-06T17:34:56.292Z,2.10
2023-03-06T17:37:23.170Z,2.33
2023-03-06T17:39:50.363Z,2.22
2023-03-06T17:42:17.200Z,2.30
2023-03-06T17:44:43.944Z,2.20
2023-03-06T17:47:11.053Z,2.63
2023-03-06T17:49:37.827Z,2.15
2023-03-06T17:52:05.714Z,2.63
2023-03-06T17:54:33.292Z,2.72
2023-03-06T17:57:03.300Z,2.35
2023-03-06T17:59:49.524Z,2.67
2023-03-06T18:02:16.684Z,3.28
2023-03-06T18:04:43.624Z,2.78
2023-03-06T18:07:10.680Z,3.03
2023-03-06T18:09:37.620Z,4.35
2023-03-06T18:12:04.703Z,3.25
2023-03-06T18:14:31.429Z,3.55
2023-03-06T18:16:58.210Z,3.10
2023-03-06T18:22:17.086Z,3.70
2023-03-06T18:24:43.870Z,4.47
2023-03-06T18:27:10.584Z,3.65
2023-03-06T18:29:37.331Z,4.07
2023-03-06T18:32:04.246Z,3.92
2023-03-06T18:34:31.068Z,4.47
2023-03-06T18:36:57.938Z,4.63
2023-03-06T18:39:24.704Z,4.13
2023-03-06T18:41:52.157Z,3.65
2023-03-06T18:44:19.003Z,3.75
2023-03-06T18:46:45.907Z,4.00
2023-03-06T18:49:14.408Z,4.43
2023-03-06T18:51:42.415Z,3.97
2023-03-06T18:54:10.812Z,4.38
2023-03-06T18:56:39.341Z,4.18
2023-03-06T18:59:07.483Z,4.03
2023-03-06T19:01:34.885Z,4.57
2023-03-06T19:04:05.473Z,4.45
2023-03-06T19:06:32.356Z,5.28
2023-03-06T19:08:59.557Z,4.88
2023-03-06T19:11:26.961Z,4.63
2023-03-06T19:13:54.468Z,4.50
2023-03-06T19:16:24.101Z,3.78
2023-03-06T19:18:51.344Z,4.22
2023-03-06T19:21:20.301Z,4.07
2023-03-06T19:23:47.630Z,4.22
2023-03-06T19:26:15.467Z,4.20
2023-03-06T19:28:43.168Z,4.15
2023-03-06T19:31:14.068Z,3.47
2023-03-06T19:33:42.444Z,3.72
2023-03-06T19:36:12.785Z,4.60
2023-03-06T19:38:39.924Z,3.90
2023-03-06T19:41:11.887Z,4.65
2023-03-06T19:43:39.200Z,5.35
2023-03-06T19:46:06.205Z,4.90
2023-03-06T19:48:33.057Z,4.45
2023-03-06T19:51:04.488Z,4.63
2023-03-06T19:53:31.665Z,4.05
2023-03-06T19:56:06.730Z,4.30
2023-03-06T20:01:05.392Z,3.90
2023-03-06T20:03:32.354Z,3.83
2023-03-06T20:05:59.138Z,3.53
2023-03-06T20:08:25.924Z,3.55
2023-03-06T20:10:52.916Z,3.92
2023-03-06T20:13:19.784Z,3.90
2023-03-06T20:15:46.983Z,3.55
2023-03-06T20:18:14.120Z,3.20
2023-03-06T20:20:40.942Z,3.45
2023-03-06T20:23:07.765Z,3.22
2023-03-06T20:25:37.587Z,3.63
2023-03-06T20:28:04.589Z,3.05
2023-03-06T20:31:18.246Z,3.25
2023-03-06T20:33:46.617Z,3.50
2023-03-06T20:36:18.946Z,3.53
2023-03-06T20:38:46.758Z,3.45
2023-03-06T20:41:18.122Z,3.28
2023-03-06T20:43:45.053Z,3.38
2023-03-06T20:46:12.850Z,3.58
2023-03-06T20:48:40.491Z,2.78
2023-03-06T20:51:17.219Z,2.83
2023-03-06T20:53:44.024Z,3.67
2023-03-06T20:56:17.661Z,2.95
2023-03-06T20:58:45.782Z,3.08
2023-03-06T21:01:26.235Z,2.80
2023-03-06T21:03:53.683Z,3.22
2023-03-06T21:06:21.058Z,2.70
2023-03-06T21:08:47.991Z,2.78
2023-03-06T21:11:15.197Z,2.47
2023-03-06T21:13:42.039Z,2.72
2023-03-06T21:16:13.131Z,2.97
2023-03-06T21:22:16.848Z,3.55
2023-03-06T21:24:43.767Z,2.63
2023-03-06T21:27:10.525Z,2.80
2023-03-06T21:32:51.879Z,2.83
2023-03-06T21:35:19.473Z,2.78
2023-03-06T21:37:46.682Z,2.75
2023-03-06T21:40:14.372Z,3.40
2023-03-06T21:42:41.575Z,2.75
2023-03-06T21:45:09.059Z,2.55
2023-03-06T21:47:40.964Z,2.15
2023-03-06T21:50:09.936Z,3.35
2023-03-06T21:52:37.058Z,2.17
2023-03-06T21:55:04.087Z,2.17
2023-03-06T21:57:54.087Z,2.75
2023-03-06T22:00:23.669Z,2.17
2023-03-06T22:02:50.795Z,2.33
2023-03-06T22:05:17.812Z,2.50
2023-03-06T22:07:44.865Z,2.15
2023-03-06T22:10:12.392Z,2.58
2023-03-06T22:12:40.141Z,2.13
2023-03-06T22:15:07.730Z,2.00
2023-03-06T22:17:34.499Z,2.40
2023-03-06T22:20:01.329Z,2.13
2023-03-06T22:22:28.131Z,2.03
2023-03-06T22:24:54.930Z,1.88
2023-03-06T22:27:21.741Z,2.00
2023-03-06T22:29:48.497Z,2.05
2023-03-06T22:32:15.918Z,1.92
2023-03-06T22:34:42.724Z,2.03
2023-03-06T22:37:09.464Z,1.55
2023-03-06T22:39:36.222Z,1.15
2023-03-06T22:42:03.050Z,2.00
2023-03-06T22:44:29.863Z,1.67
2023-03-06T22:46:56.651Z,1.52
2023-03-06T22:49:23.430Z,1.35
2023-03-06T22:51:50.307Z,1.67
2023-03-06T22:54:17.042Z,1.40
2023-03-06T22:56:43.810Z,1.48
2023-03-06T22:59:10.535Z,1.40
2023-03-06T23:01:37.428Z,1.90
2023-03-06T23:04:10.878Z,1.60
2023-03-06T23:06:40.574Z,1.48
2023-03-06T23:09:27.602Z,1.80
2023-03-06T23:11:54.462Z,1.58
2023-03-06T23:14:21.345Z,1.63
2023-03-06T23:16:48.177Z,1.67
2023-03-06T23:19:15.440Z,1.55
2023-03-06T23:21:42.897Z,1.88
2023-03-06T23:24:09.622Z,1.48
2023-03-06T23:26:36.386Z,2.20
2023-03-06T23:29:04.343Z,1.58
2023-03-06T23:31:31.641Z,1.77
2023-03-06T23:34:00.530Z,2.03
2023-03-06T23:36:28.230Z,1.92
2023-03-06T23:38:55.380Z,2.42
2023-03-06T23:41:23.548Z,2.40
2023-03-06T23:43:52.418Z,2.80
2023-03-06T23:46:20.975Z,3.20
2023-03-06T23:48:47.788Z,2.50
2023-03-06T23:51:17.457Z,2.80
2023-03-06T23:53:45.706Z,2.95
2023-03-06T23:56:13.477Z,2.78
2023-03-06T23:58:40.708Z,2.53
